sensor_id;sensor_type;location;lat;lon;timestamp;pressure;altitude;pressure_sealevel;temperature;humidity
80248;BME280;69560;52.206;21.018;2024-01-30T00:00:41;101964.92;;;2.75;58.93
80248;BME280;69560;52.206;21.018;2024-01-30T00:03:28;101961.30;;;2.74;59.22
80248;BME280;69560;52.206;21.018;2024-01-30T00:05:55;101954.17;;;2.75;59.25
80248;BME280;69560;52.206;21.018;2024-01-30T00:08:22;101953.69;;;2.75;59.22
80248;BME280;69560;52.206;21.018;2024-01-30T00:10:49;101945.46;;;2.72;59.21
80248;BME280;69560;52.206;21.018;2024-01-30T00:13:15;101946.12;;;2.69;59.29
80248;BME280;69560;52.206;21.018;2024-01-30T00:15:44;101944.30;;;2.66;59.33
80248;BME280;69560;52.206;21.018;2024-01-30T00:18:10;101945.63;;;2.63;59.32
80248;BME280;69560;52.206;21.018;2024-01-30T00:20:37;101944.30;;;2.61;59.51
80248;BME280;69560;52.206;21.018;2024-01-30T00:23:04;101942.29;;;2.60;59.51
80248;BME280;69560;52.206;21.018;2024-01-30T00:25:30;101937.95;;;2.59;59.52
80248;BME280;69560;52.206;21.018;2024-01-30T00:27:59;101935.54;;;2.60;59.58
80248;BME280;69560;52.206;21.018;2024-01-30T00:30:25;101936.20;;;2.63;59.59
80248;BME280;69560;52.206;21.018;2024-01-30T00:32:53;101935.38;;;2.68;59.61
80248;BME280;69560;52.206;21.018;2024-01-30T00:35:20;101940.31;;;2.73;59.66
80248;BME280;69560;52.206;21.018;2024-01-30T00:37:48;101939.38;;;2.74;59.50
80248;BME280;69560;52.206;21.018;2024-01-30T00:40:15;101937.08;;;2.72;59.54
80248;BME280;69560;52.206;21.018;2024-01-30T00:42:42;101933.89;;;2.72;59.43
80248;BME280;69560;52.206;21.018;2024-01-30T00:45:13;101927.66;;;2.71;59.66
80248;BME280;69560;52.206;21.018;2024-01-30T00:47:41;101924.70;;;2.73;59.71
80248;BME280;69560;52.206;21.018;2024-01-30T00:50:07;101925.02;;;2.72;59.63
80248;BME280;69560;52.206;21.018;2024-01-30T00:52:34;101923.32;;;2.72;59.68
80248;BME280;69560;52.206;21.018;2024-01-30T00:55:01;101922.89;;;2.70;59.80
80248;BME280;69560;52.206;21.018;2024-01-30T00:57:29;101924.09;;;2.61;59.42
80248;BME280;69560;52.206;21.018;2024-01-30T00:59:55;101921.36;;;2.54;59.48
80248;BME280;69560;52.206;21.018;2024-01-30T01:02:22;101923.55;;;2.51;59.61
80248;BME280;69560;52.206;21.018;2024-01-30T01:04:48;101919.02;;;2.49;59.68
80248;BME280;69560;52.206;21.018;2024-01-30T01:07:14;101915.66;;;2.49;59.78
80248;BME280;69560;52.206;21.018;2024-01-30T01:09:41;101918.39;;;2.49;59.82
80248;BME280;69560;52.206;21.018;2024-01-30T01:12:07;101921.14;;;2.48;59.88
80248;BME280;69560;52.206;21.018;2024-01-30T01:14:34;101922.93;;;2.45;59.84
80248;BME280;69560;52.206;21.018;2024-01-30T01:17:01;101925.23;;;2.40;59.82
80248;BME280;69560;52.206;21.018;2024-01-30T01:19:27;101922.44;;;2.38;59.92
80248;BME280;69560;52.206;21.018;2024-01-30T01:21:53;101919.54;;;2.41;60.15
80248;BME280;69560;52.206;21.018;2024-01-30T01:24:20;101921.78;;;2.40;59.86
80248;BME280;69560;52.206;21.018;2024-01-30T01:26:47;101923.48;;;2.39;59.94
80248;BME280;69560;52.206;21.018;2024-01-30T01:29:13;101921.23;;;2.39;60.02
80248;BME280;69560;52.206;21.018;2024-01-30T01:31:41;101923.48;;;2.39;60.18
80248;BME280;69560;52.206;21.018;2024-01-30T01:34:12;101922.77;;;2.38;60.07
80248;BME280;69560;52.206;21.018;2024-01-30T01:36:39;101923.58;;;2.36;60.07
80248;BME280;69560;52.206;21.018;2024-01-30T01:39:05;101921.92;;;2.34;60.21
80248;BME280;69560;52.206;21.018;2024-01-30T01:41:33;101918.33;;;2.36;60.27
80248;BME280;69560;52.206;21.018;2024-01-30T01:43:59;101916.69;;;2.38;60.43
80248;BME280;69560;52.206;21.018;2024-01-30T01:46:27;101912.26;;;2.38;60.26
80248;BME280;69560;52.206;21.018;2024-01-30T01:48:56;101914.27;;;2.37;60.13
80248;BME280;69560;52.206;21.018;2024-01-30T01:51:24;101914.66;;;2.35;60.16
80248;BME280;69560;52.206;21.018;2024-01-30T01:53:54;101910.94;;;2.34;60.19
80248;BME280;69560;52.206;21.018;2024-01-30T01:56:22;101904.10;;;2.36;60.44
80248;BME280;69560;52.206;21.018;2024-01-30T01:58:51;101904.80;;;2.40;60.69
80248;BME280;69560;52.206;21.018;2024-01-30T02:01:21;101901.30;;;2.43;60.53
80248;BME280;69560;52.206;21.018;2024-01-30T02:03:48;101896.42;;;2.42;60.54
80248;BME280;69560;52.206;21.018;2024-01-30T02:06:14;101895.38;;;2.43;60.60
80248;BME280;69560;52.206;21.018;2024-01-30T02:08:41;101892.10;;;2.43;60.45
80248;BME280;69560;52.206;21.018;2024-01-30T02:11:09;101889.09;;;2.44;60.60
80248;BME280;69560;52.206;21.018;2024-01-30T02:13:40;101888.71;;;2.48;60.67
80248;BME280;69560;52.206;21.018;2024-01-30T02:16:07;101889.73;;;2.48;60.56
80248;BME280;69560;52.206;21.018;2024-01-30T02:18:33;101884.48;;;2.44;60.44
80248;BME280;69560;52.206;21.018;2024-01-30T02:21:08;101884.44;;;2.43;60.50
80248;BME280;69560;52.206;21.018;2024-01-30T02:23:38;101883.94;;;2.44;60.67
80248;BME280;69560;52.206;21.018;2024-01-30T02:26:05;101884.27;;;2.45;60.71
80248;BME280;69560;52.206;21.018;2024-01-30T02:28:32;101885.91;;;2.46;60.83
80248;BME280;69560;52.206;21.018;2024-01-30T02:30:58;101885.04;;;2.48;60.74
80248;BME280;69560;52.206;21.018;2024-01-30T02:33:25;101882.13;;;2.50;60.79
80248;BME280;69560;52.206;21.018;2024-01-30T02:35:51;101885.03;;;2.50;60.58
80248;BME280;69560;52.206;21.018;2024-01-30T02:38:18;101885.70;;;2.43;60.35
80248;BME280;69560;52.206;21.018;2024-01-30T02:40:44;101887.66;;;2.45;60.54
80248;BME280;69560;52.206;21.018;2024-01-30T02:43:11;101891.33;;;2.45;60.49
80248;BME280;69560;52.206;21.018;2024-01-30T02:45:37;101891.06;;;2.43;60.48
80248;BME280;69560;52.206;21.018;2024-01-30T02:48:04;101888.97;;;2.42;60.80
80248;BME280;69560;52.206;21.018;2024-01-30T02:50:31;101889.91;;;2.44;60.84
80248;BME280;69560;52.206;21.018;2024-01-30T02:52:57;101882.61;;;2.42;60.63
80248;BME280;69560;52.206;21.018;2024-01-30T02:55:24;101886.40;;;2.37;60.49
80248;BME280;69560;52.206;21.018;2024-01-30T02:57:50;101885.46;;;2.33;60.53
80248;BME280;69560;52.206;21.018;2024-01-30T03:00:19;101879.48;;;2.28;60.37
80248;BME280;69560;52.206;21.018;2024-01-30T03:02:45;101877.30;;;2.23;60.42
80248;BME280;69560;52.206;21.018;2024-01-30T03:05:12;101879.65;;;2.19;60.51
80248;BME280;69560;52.206;21.018;2024-01-30T03:07:38;101880.41;;;2.13;60.48
80248;BME280;69560;52.206;21.018;2024-01-30T03:10:08;101884.14;;;2.12;60.70
80248;BME280;69560;52.206;21.018;2024-01-30T03:12:35;101879.21;;;2.10;60.82
80248;BME280;69560;52.206;21.018;2024-01-30T03:15:01;101879.70;;;2.10;60.90
80248;BME280;69560;52.206;21.018;2024-01-30T03:17:28;101882.73;;;2.10;60.86
80248;BME280;69560;52.206;21.018;2024-01-30T03:19:54;101880.52;;;2.10;60.84
80248;BME280;69560;52.206;21.018;2024-01-30T03:22:21;101880.07;;;2.08;60.87
80248;BME280;69560;52.206;21.018;2024-01-30T03:24:47;101881.39;;;2.07;60.83
80248;BME280;69560;52.206;21.018;2024-01-30T03:27:14;101880.96;;;2.10;61.20
80248;BME280;69560;52.206;21.018;2024-01-30T03:29:40;101879.27;;;2.10;60.97
80248;BME280;69560;52.206;21.018;2024-01-30T03:32:06;101880.02;;;2.07;60.91
80248;BME280;69560;52.206;21.018;2024-01-30T03:34:34;101877.73;;;2.06;61.07
80248;BME280;69560;52.206;21.018;2024-01-30T03:37:00;101879.04;;;2.04;61.02
80248;BME280;69560;52.206;21.018;2024-01-30T03:39:26;101880.69;;;2.06;61.07
80248;BME280;69560;52.206;21.018;2024-01-30T03:41:53;101880.52;;;2.09;61.20
80248;BME280;69560;52.206;21.018;2024-01-30T03:44:19;101881.49;;;2.08;61.05
80248;BME280;69560;52.206;21.018;2024-01-30T03:46:46;101881.45;;;2.09;60.99
80248;BME280;69560;52.206;21.018;2024-01-30T03:49:12;101873.29;;;2.10;61.06
80248;BME280;69560;52.206;21.018;2024-01-30T03:51:39;101874.83;;;2.11;61.07
80248;BME280;69560;52.206;21.018;2024-01-30T03:54:05;101873.19;;;2.10;61.17
80248;BME280;69560;52.206;21.018;2024-01-30T03:56:32;101869.90;;;2.08;61.05
80248;BME280;69560;52.206;21.018;2024-01-30T03:58:58;101869.45;;;2.05;61.07
80248;BME280;69560;52.206;21.018;2024-01-30T04:01:27;101866.27;;;2.02;60.88
80248;BME280;69560;52.206;21.018;2024-01-30T04:03:53;101866.38;;;2.00;61.00
80248;BME280;69560;52.206;21.018;2024-01-30T04:06:19;101864.17;;;1.97;61.12
80248;BME280;69560;52.206;21.018;2024-01-30T04:08:46;101867.63;;;1.96;61.30
80248;BME280;69560;52.206;21.018;2024-01-30T04:11:12;101865.33;;;1.98;61.41
80248;BME280;69560;52.206;21.018;2024-01-30T04:13:39;101865.17;;;1.98;61.30
80248;BME280;69560;52.206;21.018;2024-01-30T04:16:06;101866.38;;;1.97;61.30
80248;BME280;69560;52.206;21.018;2024-01-30T04:18:34;101869.39;;;1.98;61.32
80248;BME280;69560;52.206;21.018;2024-01-30T04:21:01;101868.90;;;2.02;61.30
80248;BME280;69560;52.206;21.018;2024-01-30T04:23:27;101862.17;;;2.03;61.30
80248;BME280;69560;52.206;21.018;2024-01-30T04:25:54;101866.86;;;1.99;61.03
80248;BME280;69560;52.206;21.018;2024-01-30T04:28:20;101868.17;;;1.93;61.11
80248;BME280;69560;52.206;21.018;2024-01-30T04:30:46;101866.75;;;1.88;61.18
80248;BME280;69560;52.206;21.018;2024-01-30T04:33:13;101872.98;;;1.87;61.40
80248;BME280;69560;52.206;21.018;2024-01-30T04:35:39;101874.02;;;1.88;61.43
80248;BME280;69560;52.206;21.018;2024-01-30T04:38:06;101874.64;;;1.90;61.27
80248;BME280;69560;52.206;21.018;2024-01-30T04:40:32;101870.26;;;1.91;61.26
80248;BME280;69560;52.206;21.018;2024-01-30T04:42:58;101866.15;;;1.94;61.34
80248;BME280;69560;52.206;21.018;2024-01-30T04:45:25;101866.15;;;1.97;61.30
80248;BME280;69560;52.206;21.018;2024-01-30T04:47:51;101865.98;;;1.97;61.22
80248;BME280;69560;52.206;21.018;2024-01-30T04:50:18;101863.20;;;1.95;61.21
80248;BME280;69560;52.206;21.018;2024-01-30T04:52:45;101865.34;;;1.94;61.37
80248;BME280;69560;52.206;21.018;2024-01-30T04:55:11;101867.52;;;1.94;61.29
80248;BME280;69560;52.206;21.018;2024-01-30T04:57:38;101866.70;;;1.93;61.36
80248;BME280;69560;52.206;21.018;2024-01-30T05:00:05;101864.50;;;1.93;61.30
80248;BME280;69560;52.206;21.018;2024-01-30T05:02:31;101866.48;;;1.94;61.29
80248;BME280;69560;52.206;21.018;2024-01-30T05:04:58;101864.19;;;1.95;61.40
80248;BME280;69560;52.206;21.018;2024-01-30T05:07:24;101864.79;;;1.97;61.38
80248;BME280;69560;52.206;21.018;2024-01-30T05:09:52;101863.20;;;1.97;61.28
80248;BME280;69560;52.206;21.018;2024-01-30T05:12:18;101861.66;;;1.97;61.37
80248;BME280;69560;52.206;21.018;2024-01-30T05:14:45;101862.77;;;1.97;61.33
80248;BME280;69560;52.206;21.018;2024-01-30T05:17:11;101856.80;;;1.97;61.36
80248;BME280;69560;52.206;21.018;2024-01-30T05:19:43;101857.34;;;1.95;61.25
80248;BME280;69560;52.206;21.018;2024-01-30T05:22:10;101857.39;;;1.96;61.18
80248;BME280;69560;52.206;21.018;2024-01-30T05:24:37;101859.98;;;1.96;61.30
80248;BME280;69560;52.206;21.018;2024-01-30T05:27:03;101858.05;;;1.95;61.19
80248;BME280;69560;52.206;21.018;2024-01-30T05:29:30;101852.04;;;1.95;61.27
80248;BME280;69560;52.206;21.018;2024-01-30T05:31:56;101854.11;;;1.96;61.24
80248;BME280;69560;52.206;21.018;2024-01-30T05:34:23;101855.16;;;1.99;61.29
80248;BME280;69560;52.206;21.018;2024-01-30T05:36:50;101853.67;;;1.97;61.25
80248;BME280;69560;52.206;21.018;2024-01-30T05:39:16;101853.34;;;1.95;61.08
80248;BME280;69560;52.206;21.018;2024-01-30T05:41:43;101859.80;;;1.97;61.11
80248;BME280;69560;52.206;21.018;2024-01-30T05:44:09;101861.78;;;1.99;61.25
80248;BME280;69560;52.206;21.018;2024-01-30T05:46:36;101858.50;;;2.00;61.23
80248;BME280;69560;52.206;21.018;2024-01-30T05:49:02;101859.22;;;2.01;61.11
80248;BME280;69560;52.206;21.018;2024-01-30T05:51:29;101861.95;;;2.02;61.12
80248;BME280;69560;52.206;21.018;2024-01-30T05:53:55;101861.52;;;2.01;61.09
80248;BME280;69560;52.206;21.018;2024-01-30T05:56:22;101867.20;;;1.99;61.06
80248;BME280;69560;52.206;21.018;2024-01-30T05:58:48;101864.67;;;1.96;60.92
80248;BME280;69560;52.206;21.018;2024-01-30T06:01:16;101862.01;;;1.95;60.87
80248;BME280;69560;52.206;21.018;2024-01-30T06:03:43;101865.65;;;1.96;61.02
80248;BME280;69560;52.206;21.018;2024-01-30T06:06:09;101866.20;;;1.96;60.97
80248;BME280;69560;52.206;21.018;2024-01-30T06:08:36;101869.05;;;1.95;60.86
80248;BME280;69560;52.206;21.018;2024-01-30T06:11:02;101866.38;;;1.94;60.94
80248;BME280;69560;52.206;21.018;2024-01-30T06:13:29;101861.05;;;1.94;60.97
80248;BME280;69560;52.206;21.018;2024-01-30T06:15:58;101863.91;;;1.93;61.00
80248;BME280;69560;52.206;21.018;2024-01-30T06:18:24;101863.14;;;1.95;61.05
80248;BME280;69560;52.206;21.018;2024-01-30T06:20:52;101859.71;;;1.97;61.02
80248;BME280;69560;52.206;21.018;2024-01-30T06:23:19;101855.65;;;1.98;60.94
80248;BME280;69560;52.206;21.018;2024-01-30T06:25:45;101857.63;;;2.00;60.97
80248;BME280;69560;52.206;21.018;2024-01-30T06:28:12;101854.17;;;1.99;60.97
80248;BME280;69560;52.206;21.018;2024-01-30T06:30:38;101856.35;;;2.00;60.99
80248;BME280;69560;52.206;21.018;2024-01-30T06:33:05;101854.23;;;2.01;60.96
80248;BME280;69560;52.206;21.018;2024-01-30T06:35:31;101862.16;;;1.99;61.08
80248;BME280;69560;52.206;21.018;2024-01-30T06:37:58;101860.46;;;1.97;61.02
80248;BME280;69560;52.206;21.018;2024-01-30T06:40:25;101865.16;;;1.98;60.92
80248;BME280;69560;52.206;21.018;2024-01-30T06:42:51;101863.64;;;1.98;60.91
80248;BME280;69560;52.206;21.018;2024-01-30T06:45:17;101864.80;;;2.00;60.93
80248;BME280;69560;52.206;21.018;2024-01-30T06:47:44;101866.94;;;2.01;60.85
80248;BME280;69560;52.206;21.018;2024-01-30T06:50:10;101867.95;;;2.02;60.88
80248;BME280;69560;52.206;21.018;2024-01-30T06:52:37;101865.56;;;2.06;60.97
80248;BME280;69560;52.206;21.018;2024-01-30T06:55:03;101863.55;;;2.07;60.85
80248;BME280;69560;52.206;21.018;2024-01-30T06:57:30;101864.15;;;2.08;60.89
80248;BME280;69560;52.206;21.018;2024-01-30T06:59:57;101862.23;;;2.10;60.96
80248;BME280;69560;52.206;21.018;2024-01-30T07:02:23;101867.51;;;2.15;60.76
80248;BME280;69560;52.206;21.018;2024-01-30T07:04:50;101868.16;;;2.21;60.75
80248;BME280;69560;52.206;21.018;2024-01-30T07:07:16;101870.17;;;2.27;60.69
80248;BME280;69560;52.206;21.018;2024-01-30T07:09:43;101871.13;;;2.34;60.76
80248;BME280;69560;52.206;21.018;2024-01-30T07:12:09;101871.34;;;2.38;60.66
80248;BME280;69560;52.206;21.018;2024-01-30T07:14:36;101868.21;;;2.41;60.57
80248;BME280;69560;52.206;21.018;2024-01-30T07:17:04;101868.66;;;2.44;60.50
80248;BME280;69560;52.206;21.018;2024-01-30T07:19:32;101870.80;;;2.49;60.55
80248;BME280;69560;52.206;21.018;2024-01-30T07:21:58;101875.99;;;2.56;60.54
80248;BME280;69560;52.206;21.018;2024-01-30T07:24:25;101872.80;;;2.65;60.64
80248;BME280;69560;52.206;21.018;2024-01-30T07:26:52;101868.47;;;2.75;60.43
80248;BME280;69560;52.206;21.018;2024-01-30T07:29:19;101872.06;;;2.86;60.40
80248;BME280;69560;52.206;21.018;2024-01-30T07:31:45;101874.50;;;2.96;60.46
80248;BME280;69560;52.206;21.018;2024-01-30T07:34:12;101871.80;;;3.08;60.19
80248;BME280;69560;52.206;21.018;2024-01-30T07:36:38;101870.06;;;3.17;60.06
80248;BME280;69560;52.206;21.018;2024-01-30T07:39:05;101871.52;;;3.28;60.10
80248;BME280;69560;52.206;21.018;2024-01-30T07:41:31;101867.61;;;3.33;59.79
80248;BME280;69560;52.206;21.018;2024-01-30T07:43:58;101874.39;;;3.45;59.98
80248;BME280;69560;52.206;21.018;2024-01-30T07:46:24;101874.50;;;3.58;59.96
80248;BME280;69560;52.206;21.018;2024-01-30T07:48:51;101871.20;;;3.72;59.82
80248;BME280;69560;52.206;21.018;2024-01-30T07:51:17;101871.55;;;3.89;59.74
80248;BME280;69560;52.206;21.018;2024-01-30T07:53:43;101868.55;;;4.01;59.53
80248;BME280;69560;52.206;21.018;2024-01-30T07:56:11;101870.02;;;4.11;59.27
80248;BME280;69560;52.206;21.018;2024-01-30T07:58:37;101867.63;;;4.23;59.24
80248;BME280;69560;52.206;21.018;2024-01-30T08:01:04;101862.41;;;4.37;59.24
80248;BME280;69560;52.206;21.018;2024-01-30T08:03:30;101863.39;;;4.52;58.98
80248;BME280;69560;52.206;21.018;2024-01-30T08:05:57;101862.17;;;4.64;58.77
80248;BME280;69560;52.206;21.018;2024-01-30T08:08:23;101862.34;;;4.77;58.34
80248;BME280;69560;52.206;21.018;2024-01-30T08:10:50;101858.60;;;4.86;58.13
80248;BME280;69560;52.206;21.018;2024-01-30T08:13:17;101859.09;;;5.03;58.32
80248;BME280;69560;52.206;21.018;2024-01-30T08:15:46;101860.27;;;5.24;58.46
80248;BME280;69560;52.206;21.018;2024-01-30T08:18:13;101852.65;;;5.45;58.09
80248;BME280;69560;52.206;21.018;2024-01-30T08:20:40;101853.35;;;5.59;57.66
80248;BME280;69560;52.206;21.018;2024-01-30T08:23:06;101852.96;;;5.79;57.33
80248;BME280;69560;52.206;21.018;2024-01-30T08:25:33;101851.79;;;6.45;58.31
80248;BME280;69560;52.206;21.018;2024-01-30T08:27:59;101852.39;;;7.69;60.00
80248;BME280;69560;52.206;21.018;2024-01-30T08:30:26;101846.70;;;9.11;60.88
80248;BME280;69560;52.206;21.018;2024-01-30T08:32:53;101839.73;;;10.66;61.07
80248;BME280;69560;52.206;21.018;2024-01-30T08:35:19;101839.60;;;12.09;60.18
80248;BME280;69560;52.206;21.018;2024-01-30T08:37:45;101832.93;;;13.07;58.00
80248;BME280;69560;52.206;21.018;2024-01-30T08:40:12;101833.02;;;14.05;57.02
80248;BME280;69560;52.206;21.018;2024-01-30T08:42:39;101831.20;;;14.85;55.41
80248;BME280;69560;52.206;21.018;2024-01-30T08:45:05;101832.83;;;15.32;53.25
80248;BME280;69560;52.206;21.018;2024-01-30T08:47:32;101834.09;;;15.79;52.33
80248;BME280;69560;52.206;21.018;2024-01-30T08:49:59;101840.60;;;16.16;51.73
80248;BME280;69560;52.206;21.018;2024-01-30T08:52:25;101842.45;;;16.05;49.59
80248;BME280;69560;52.206;21.018;2024-01-30T08:54:52;101846.25;;;16.22;48.56
80248;BME280;69560;52.206;21.018;2024-01-30T08:57:18;101840.93;;;16.45;48.21
80248;BME280;69560;52.206;21.018;2024-01-30T08:59:45;101838.11;;;16.94;47.92
80248;BME280;69560;52.206;21.018;2024-01-30T09:02:13;101835.46;;;17.88;48.04
80248;BME280;69560;52.206;21.018;2024-01-30T09:04:42;101833.94;;;18.63;46.56
80248;BME280;69560;52.206;21.018;2024-01-30T09:07:09;101828.27;;;19.28;46.34
80248;BME280;69560;52.206;21.018;2024-01-30T09:09:38;101835.61;;;19.60;45.05
80248;BME280;69560;52.206;21.018;2024-01-30T09:12:06;101837.74;;;20.02;44.11
80248;BME280;69560;52.206;21.018;2024-01-30T09:14:36;101833.89;;;20.29;43.63
80248;BME280;69560;52.206;21.018;2024-01-30T09:17:03;101837.52;;;20.48;42.22
80248;BME280;69560;52.206;21.018;2024-01-30T09:19:30;101834.13;;;20.16;41.14
80248;BME280;69560;52.206;21.018;2024-01-30T09:21:57;101834.10;;;19.34;39.50
80248;BME280;69560;52.206;21.018;2024-01-30T09:24:25;101835.15;;;18.94;39.10
80248;BME280;69560;52.206;21.018;2024-01-30T09:26:52;101828.52;;;19.39;40.00
80248;BME280;69560;52.206;21.018;2024-01-30T09:29:18;101828.15;;;20.28;40.78
80248;BME280;69560;52.206;21.018;2024-01-30T09:31:48;101831.45;;;21.38;40.93
80248;BME280;69560;52.206;21.018;2024-01-30T09:34:14;101828.19;;;21.76;39.22
80248;BME280;69560;52.206;21.018;2024-01-30T09:36:41;101824.59;;;21.45;37.37
80248;BME280;69560;52.206;21.018;2024-01-30T09:39:07;101816.20;;;21.26;37.16
80248;BME280;69560;52.206;21.018;2024-01-30T09:41:44;101821.38;;;21.39;37.77
80248;BME280;69560;52.206;21.018;2024-01-30T09:44:12;101823.69;;;21.11;36.86
80248;BME280;69560;52.206;21.018;2024-01-30T09:46:40;101816.52;;;21.31;36.36
80248;BME280;69560;52.206;21.018;2024-01-30T09:49:08;101814.67;;;21.99;36.79
80248;BME280;69560;52.206;21.018;2024-01-30T09:51:35;101812.20;;;22.90;37.01
80248;BME280;69560;52.206;21.018;2024-01-30T09:54:02;101815.65;;;23.59;36.34
80248;BME280;69560;52.206;21.018;2024-01-30T09:56:29;101809.13;;;23.94;35.29
80248;BME280;69560;52.206;21.018;2024-01-30T09:58:55;101809.52;;;24.69;35.42
80248;BME280;69560;52.206;21.018;2024-01-30T10:01:22;101809.92;;;24.99;33.97
80248;BME280;69560;52.206;21.018;2024-01-30T10:03:50;101803.67;;;25.15;33.10
80248;BME280;69560;52.206;21.018;2024-01-30T10:06:18;101803.73;;;25.41;32.76
80248;BME280;69560;52.206;21.018;2024-01-30T10:08:47;101804.84;;;25.57;32.18
80248;BME280;69560;52.206;21.018;2024-01-30T10:11:13;101798.01;;;25.92;32.02
80248;BME280;69560;52.206;21.018;2024-01-30T10:13:39;101798.06;;;26.19;31.47
80248;BME280;69560;52.206;21.018;2024-01-30T10:16:06;101796.73;;;26.25;30.73
80248;BME280;69560;52.206;21.018;2024-01-30T10:18:33;101794.27;;;25.84;30.21
80248;BME280;69560;52.206;21.018;2024-01-30T10:20:59;101793.31;;;25.70;29.95
80248;BME280;69560;52.206;21.018;2024-01-30T10:23:26;101794.29;;;26.04;30.39
80248;BME280;69560;52.206;21.018;2024-01-30T10:25:53;101787.85;;;25.75;30.05
80248;BME280;69560;52.206;21.018;2024-01-30T10:28:19;101787.80;;;25.18;29.37
80248;BME280;69560;52.206;21.018;2024-01-30T10:30:46;101782.90;;;24.66;29.19
80248;BME280;69560;52.206;21.018;2024-01-30T10:33:15;101779.36;;;24.21;28.63
80248;BME280;69560;52.206;21.018;2024-01-30T10:35:44;101774.52;;;23.90;28.98
80248;BME280;69560;52.206;21.018;2024-01-30T10:38:12;101771.02;;;24.01;28.67
80248;BME280;69560;52.206;21.018;2024-01-30T10:40:42;101768.14;;;23.89;28.53
80248;BME280;69560;52.206;21.018;2024-01-30T10:43:10;101760.81;;;23.47;28.06
80248;BME280;69560;52.206;21.018;2024-01-30T10:45:39;101760.56;;;23.56;28.46
80248;BME280;69560;52.206;21.018;2024-01-30T10:48:09;101760.66;;;23.78;28.62
80248;BME280;69560;52.206;21.018;2024-01-30T10:50:36;101753.23;;;23.37;28.02
80248;BME280;69560;52.206;21.018;2024-01-30T10:53:03;101752.27;;;22.97;28.19
80248;BME280;69560;52.206;21.018;2024-01-30T10:55:31;101751.50;;;23.00;28.54
80248;BME280;69560;52.206;21.018;2024-01-30T10:57:57;101750.58;;;23.42;29.36
80248;BME280;69560;52.206;21.018;2024-01-30T11:00:25;101750.10;;;23.95;29.17
80248;BME280;69560;52.206;21.018;2024-01-30T11:02:52;101748.73;;;24.35;28.98
80248;BME280;69560;52.206;21.018;2024-01-30T11:05:27;101743.87;;;24.95;29.13
80248;BME280;69560;52.206;21.018;2024-01-30T11:07:53;101743.03;;;25.67;29.07
80248;BME280;69560;52.206;21.018;2024-01-30T11:10:20;101733.53;;;25.79;29.00
80248;BME280;69560;52.206;21.018;2024-01-30T11:12:48;101734.73;;;25.28;28.28
80248;BME280;69560;52.206;21.018;2024-01-30T11:15:16;101733.60;;;24.13;26.81
80248;BME280;69560;52.206;21.018;2024-01-30T11:22:47;101723.30;;;21.14;27.04
80248;BME280;69560;52.206;21.018;2024-01-30T11:25:15;101725.20;;;20.56;27.20
80248;BME280;69560;52.206;21.018;2024-01-30T11:27:43;101722.39;;;19.93;27.36
80248;BME280;69560;52.206;21.018;2024-01-30T11:30:20;101716.98;;;19.54;28.08
80248;BME280;69560;52.206;21.018;2024-01-30T11:33:13;101712.38;;;19.29;28.14
80248;BME280;69560;52.206;21.018;2024-01-30T11:35:43;101711.46;;;19.26;28.15
80248;BME280;69560;52.206;21.018;2024-01-30T11:38:11;101708.80;;;19.77;27.98
80248;BME280;69560;52.206;21.018;2024-01-30T11:40:40;101702.23;;;20.60;28.12
80248;BME280;69560;52.206;21.018;2024-01-30T11:43:07;101696.45;;;21.35;28.56
80248;BME280;69560;52.206;21.018;2024-01-30T11:45:36;101696.20;;;21.47;27.81
80248;BME280;69560;52.206;21.018;2024-01-30T11:48:03;101696.31;;;21.19;27.46
80248;BME280;69560;52.206;21.018;2024-01-30T11:50:31;101695.59;;;20.99;27.21
80248;BME280;69560;52.206;21.018;2024-01-30T11:52:59;101693.11;;;21.17;27.75
80248;BME280;69560;52.206;21.018;2024-01-30T11:55:26;101691.58;;;22.16;28.42
80248;BME280;69560;52.206;21.018;2024-01-30T11:57:57;101687.94;;;23.27;28.15
80248;BME280;69560;52.206;21.018;2024-01-30T12:00:24;101686.36;;;24.15;27.63
80248;BME280;69560;52.206;21.018;2024-01-30T12:02:52;101692.27;;;24.81;26.90
80248;BME280;69560;52.206;21.018;2024-01-30T12:05:25;101690.73;;;25.39;26.88
80248;BME280;69560;52.206;21.018;2024-01-30T12:07:51;101689.04;;;25.95;26.33
80248;BME280;69560;52.206;21.018;2024-01-30T12:10:18;101692.48;;;26.45;25.71
80248;BME280;69560;52.206;21.018;2024-01-30T12:12:46;101684.04;;;26.73;25.21
80248;BME280;69560;52.206;21.018;2024-01-30T12:15:14;101678.71;;;26.78;24.95
80248;BME280;69560;52.206;21.018;2024-01-30T12:17:40;101677.59;;;26.63;24.69
80248;BME280;69560;52.206;21.018;2024-01-30T12:20:10;101674.87;;;26.41;24.22
80248;BME280;69560;52.206;21.018;2024-01-30T12:22:39;101676.11;;;26.77;24.45
80248;BME280;69560;52.206;21.018;2024-01-30T12:25:10;101677.98;;;27.22;24.36
80248;BME280;69560;52.206;21.018;2024-01-30T12:27:37;101677.69;;;27.51;24.01
80248;BME280;69560;52.206;21.018;2024-01-30T12:32:42;101677.73;;;27.73;23.34
80248;BME280;69560;52.206;21.018;2024-01-30T12:35:14;101677.52;;;27.85;23.28
80248;BME280;69560;52.206;21.018;2024-01-30T12:37:42;101674.42;;;27.74;23.11
80248;BME280;69560;52.206;21.018;2024-01-30T12:40:16;101676.44;;;27.75;23.27
80248;BME280;69560;52.206;21.018;2024-01-30T12:42:46;101672.65;;;27.71;23.09
80248;BME280;69560;52.206;21.018;2024-01-30T12:45:16;101666.00;;;27.78;22.83
80248;BME280;69560;52.206;21.018;2024-01-30T12:47:46;101660.73;;;27.60;22.76
80248;BME280;69560;52.206;21.018;2024-01-30T12:50:13;101660.00;;;27.58;22.80
80248;BME280;69560;52.206;21.018;2024-01-30T12:52:42;101658.41;;;27.59;22.84
80248;BME280;69560;52.206;21.018;2024-01-30T12:55:09;101655.70;;;27.02;22.45